createdAt,value
2023-03-07T00:00:16.544Z,52.20
2023-03-07T00:02:43.822Z,52.07
2023-03-07T00:05:10.898Z,52.14
2023-03-07T00:07:38.668Z,52.08
2023-03-07T00:10:06.283Z,52.19
2023-03-07T00:12:33.195Z,52.09
2023-03-07T00:15:00.221Z,53.55
2023-03-07T00:17:27.166Z,53.64
2023-03-07T00:19:54.148Z,53.16
2023-03-07T00:22:21.052Z,54.23
2023-03-07T00:24:48.849Z,53.51
2023-03-07T00:27:15.830Z,53.63
2023-03-07T00:29:42.833Z,53.25
2023-03-07T00:32:09.883Z,52.97
2023-03-07T00:34:36.857Z,54.38
2023-03-07T00:37:03.787Z,53.39
2023-03-07T00:39:30.800Z,53.46
2023-03-07T00:41:57.730Z,53.54
2023-03-07T00:44:25.485Z,53.02
2023-03-07T00:46:52.901Z,53.75
2023-03-07T00:49:20.921Z,54.06
2023-03-07T00:51:48.405Z,53.27
2023-03-07T00:54:16.161Z,53.50
2023-03-07T00:56:43.814Z,54.75
2023-03-07T00:59:11.305Z,54.43
2023-03-07T01:01:38.620Z,54.50
2023-03-07T01:04:05.834Z,54.46
2023-03-07T01:06:34.966Z,54.20
2023-03-07T01:09:07.864Z,54.49
2023-03-07T01:11:37.202Z,54.29
2023-03-07T01:14:06.738Z,53.86
2023-03-07T01:16:38.036Z,53.72
2023-03-07T01:19:09.461Z,54.32
2023-03-07T01:21:40.277Z,54.09
2023-03-07T01:24:12.361Z,54.51
2023-03-07T01:26:39.537Z,54.93
2023-03-07T01:29:08.019Z,54.54
2023-03-07T01:31:36.416Z,54.55
2023-03-07T01:34:04.790Z,54.27
2023-03-07T01:36:35.718Z,55.39
2023-03-07T01:39:14.051Z,55.17
2023-03-07T01:42:03.480Z,55.92
2023-03-07T01:44:30.652Z,55.15
2023-03-07T01:47:00.530Z,55.66
2023-03-07T01:49:46.142Z,55.76
2023-03-07T01:52:22.281Z,56.08
2023-03-07T01:55:00.064Z,55.22
2023-03-07T01:57:33.289Z,55.38
2023-03-07T02:00:08.534Z,54.91
2023-03-07T02:02:42.888Z,55.26
2023-03-07T02:05:38.058Z,54.73
2023-03-07T02:08:08.784Z,55.03
2023-03-07T02:10:37.794Z,54.63
2023-03-07T02:13:05.360Z,54.59
2023-03-07T02:15:35.050Z,54.45
2023-03-07T02:18:03.608Z,54.89
2023-03-07T02:21:03.128Z,54.49
2023-03-07T02:23:41.636Z,54.28
2023-03-07T02:26:31.082Z,54.10
2023-03-07T02:29:00.681Z,54.63
2023-03-07T02:31:28.594Z,54.73
2023-03-07T02:33:55.470Z,54.24
2023-03-07T02:36:26.733Z,54.40
2023-03-07T02:39:09.033Z,54.21
2023-03-07T02:41:38.491Z,54.46
2023-03-07T02:44:13.060Z,54.58
2023-03-07T02:46:40.523Z,54.63
2023-03-07T02:49:07.593Z,54.25
2023-03-07T02:51:34.593Z,53.78
2023-03-07T02:54:01.643Z,54.16
2023-03-07T02:56:28.963Z,53.94
2023-03-07T02:58:56.307Z,53.81
2023-03-07T03:01:23.781Z,53.59
2023-03-07T03:03:50.981Z,53.58
2023-03-07T03:06:17.879Z,53.87
2023-03-07T03:08:44.931Z,53.59
2023-03-07T03:11:12.124Z,53.44
2023-03-07T03:13:40.061Z,53.68
2023-03-07T03:16:07.857Z,53.61
2023-03-07T03:18:35.005Z,53.85
2023-03-07T03:21:11.436Z,53.50
2023-03-07T03:23:39.039Z,53.64
2023-03-07T03:26:11.207Z,53.47
2023-03-07T03:28:40.277Z,53.57
2023-03-07T03:31:11.881Z,53.71
2023-03-07T03:33:40.312Z,53.66
2023-03-07T03:36:16.847Z,53.55
2023-03-07T03:38:46.613Z,53.49
2023-03-07T03:41:18.262Z,53.48
2023-03-07T03:43:48.291Z,53.63
2023-03-07T03:46:17.525Z,53.78
2023-03-07T03:48:44.693Z,53.50
2023-03-07T03:51:16.908Z,53.53
2023-03-07T03:53:43.993Z,53.54
2023-03-07T03:56:14.975Z,53.23
2023-03-07T03:58:42.970Z,53.36
2023-03-07T04:01:12.166Z,53.37
2023-03-07T04:03:42.484Z,53.16
2023-03-07T04:06:13.731Z,53.30
2023-03-07T04:08:41.802Z,53.20
2023-03-07T04:11:09.193Z,53.14
2023-03-07T04:13:36.997Z,52.72
2023-03-07T04:16:05.171Z,53.25
2023-03-07T04:18:32.293Z,52.89
2023-03-07T04:20:59.359Z,52.90
2023-03-07T04:23:28.065Z,52.87
2023-03-07T04:25:58.087Z,52.77
2023-03-07T04:28:41.917Z,52.58
2023-03-07T04:31:10.986Z,52.58
2023-03-07T04:33:38.091Z,52.54
2023-03-07T04:36:05.696Z,52.93
2023-03-07T04:38:32.969Z,52.90
2023-03-07T04:41:00.133Z,52.78
2023-03-07T04:43:27.453Z,52.88
2023-03-07T04:45:54.437Z,52.95
2023-03-07T04:48:21.736Z,52.91
2023-03-07T04:50:50.483Z,52.85
2023-03-07T04:53:19.505Z,53.04
2023-03-07T04:55:47.316Z,52.70
2023-03-07T04:58:15.095Z,53.12
2023-03-07T05:00:43.974Z,52.96
2023-03-07T05:03:13.033Z,53.06
2023-03-07T05:05:40.560Z,52.82
2023-03-07T05:08:08.465Z,52.61
2023-03-07T05:10:37.043Z,52.57
2023-03-07T05:13:04.798Z,52.67
2023-03-07T05:15:31.935Z,52.49
2023-03-07T05:17:58.970Z,52.52
2023-03-07T05:20:27.634Z,52.56
2023-03-07T05:22:54.656Z,52.52
2023-03-07T05:25:22.237Z,52.63
2023-03-07T05:27:49.995Z,52.30
2023-03-07T05:30:17.184Z,52.67
2023-03-07T05:32:44.121Z,52.54
2023-03-07T05:35:13.441Z,52.57
2023-03-07T05:37:41.739Z,52.60
2023-03-07T05:40:10.522Z,52.83
2023-03-07T05:42:41.727Z,52.63
2023-03-07T05:45:10.477Z,52.36
2023-03-07T05:47:38.900Z,52.72
2023-03-07T05:50:09.569Z,52.43
2023-03-07T05:52:37.264Z,52.55
2023-03-07T05:55:04.673Z,52.74
2023-03-07T05:57:32.995Z,52.40
2023-03-07T06:00:00.016Z,52.41
2023-03-07T06:02:27.135Z,52.67
2023-03-07T06:04:54.210Z,52.50
2023-03-07T06:07:21.287Z,52.31
2023-03-07T06:09:48.220Z,52.11
2023-03-07T06:12:15.337Z,52.38
2023-03-07T06:14:42.201Z,51.87
2023-03-07T06:17:09.299Z,52.36
2023-03-07T06:19:36.420Z,52.35
2023-03-07T06:22:04.016Z,52.46
2023-03-07T06:24:31.158Z,52.11
2023-03-07T06:26:58.875Z,52.01
2023-03-07T06:29:25.949Z,51.88
2023-03-07T06:31:52.840Z,52.29
2023-03-07T06:34:19.806Z,51.88
2023-03-07T06:36:48.728Z,51.90
2023-03-07T06:39:21.108Z,51.79
2023-03-07T06:41:51.167Z,52.02
2023-03-07T06:44:18.415Z,51.70
2023-03-07T06:46:46.471Z,51.66
2023-03-07T06:49:16.464Z,51.27
2023-03-07T06:51:46.574Z,51.34
2023-03-07T06:54:13.870Z,50.97
2023-03-07T06:56:41.408Z,51.20
2023-03-07T06:59:10.395Z,50.79
2023-03-07T07:01:37.369Z,51.13
2023-03-07T07:04:05.272Z,51.10
2023-03-07T07:06:32.544Z,50.55
2023-03-07T07:09:00.135Z,50.46
2023-03-07T07:11:31.988Z,50.44
2023-03-07T07:14:00.325Z,50.06
2023-03-07T07:16:27.447Z,50.04
2023-03-07T07:18:54.511Z,49.79
2023-03-07T07:21:22.487Z,49.76
2023-03-07T07:23:49.462Z,49.83
2023-03-07T07:26:16.471Z,49.35
2023-03-07T07:28:43.518Z,49.23
2023-03-07T07:31:10.397Z,49.99
2023-03-07T07:33:38.056Z,49.51
2023-03-07T07:36:07.560Z,49.41
2023-03-07T07:38:36.649Z,49.37
2023-03-07T07:41:04.037Z,49.19
2023-03-07T07:43:32.216Z,48.97
2023-03-07T07:46:09.621Z,48.97
2023-03-07T07:48:37.348Z,48.59
2023-03-07T07:51:05.860Z,48.69
2023-03-07T07:53:36.481Z,48.71
2023-03-07T07:56:03.754Z,48.58
2023-03-07T07:58:30.843Z,47.75
2023-03-07T08:00:58.344Z,47.33
2023-03-07T08:03:25.791Z,47.29
2023-03-07T08:05:53.644Z,48.16
2023-03-07T08:08:20.597Z,47.22
2023-03-07T08:10:48.842Z,46.51
2023-03-07T08:13:17.746Z,46.45
2023-03-07T08:15:44.829Z,46.22
2023-03-07T08:18:12.033Z,46.75
2023-03-07T08:20:39.664Z,46.41
2023-03-07T08:23:07.327Z,45.75
2023-03-07T08:25:34.340Z,45.53
2023-03-07T08:28:03.583Z,45.36
2023-03-07T08:30:33.148Z,45.14
2023-03-07T08:33:00.533Z,45.26
2023-03-07T08:35:31.673Z,45.67
2023-03-07T08:38:00.557Z,45.07
2023-03-07T08:40:31.541Z,45.14
2023-03-07T08:43:01.492Z,45.27
2023-03-07T08:45:28.495Z,45.22
2023-03-07T08:47:56.472Z,44.90
2023-03-07T08:50:27.815Z,44.83
2023-03-07T08:52:54.878Z,44.54
2023-03-07T08:55:21.885Z,44.65
2023-03-07T08:57:49.042Z,44.61
2023-03-07T09:00:17.800Z,44.61
2023-03-07T09:02:44.719Z,43.57
2023-03-07T09:05:11.672Z,43.39
2023-03-07T09:07:38.705Z,43.80
2023-03-07T09:10:06.435Z,43.26
2023-03-07T09:12:34.377Z,43.47
2023-03-07T09:15:01.398Z,43.36
2023-03-07T09:17:28.644Z,43.39
2023-03-07T09:19:56.697Z,42.79
2023-03-07T09:22:23.731Z,42.81
2023-03-07T09:24:50.572Z,42.97
2023-03-07T09:27:17.626Z,42.46
2023-03-07T09:29:45.370Z,43.00
2023-03-07T09:32:12.427Z,43.25
2023-03-07T09:34:40.670Z,42.39
2023-03-07T09:37:07.725Z,42.30
2023-03-07T09:39:34.692Z,42.60
2023-03-07T09:42:28.204Z,41.69
2023-03-07T09:45:10.710Z,41.85
2023-03-07T09:48:16.940Z,42.31
2023-03-07T09:51:03.439Z,40.84
2023-03-07T09:53:41.709Z,41.48
2023-03-07T09:56:35.533Z,40.23
2023-03-07T09:59:38.538Z,40.83
2023-03-07T10:02:17.687Z,41.38
2023-03-07T10:04:54.960Z,41.43
2023-03-07T10:07:25.769Z,41.65
2023-03-07T10:10:00.497Z,41.56
2023-03-07T10:12:48.311Z,41.20
2023-03-07T10:15:33.239Z,41.65
2023-03-07T10:18:27.589Z,39.67
2023-03-07T10:21:31.176Z,39.92
2023-03-07T10:24:22.379Z,41.00
2023-03-07T10:27:15.541Z,39.16
2023-03-07T10:29:49.800Z,39.69
2023-03-07T10:33:01.518Z,39.04
2023-03-07T10:36:12.983Z,39.01
2023-03-07T10:39:04.651Z,40.34
2023-03-07T10:41:31.539Z,38.62
2023-03-07T10:43:58.625Z,39.18
2023-03-07T10:46:30.726Z,40.04
2023-03-07T10:49:09.451Z,39.76
2023-03-07T10:52:02.133Z,39.58
2023-03-07T10:54:35.474Z,39.82
2023-03-07T10:57:19.508Z,39.79
2023-03-07T10:59:48.704Z,40.74
2023-03-07T11:02:32.272Z,39.71
2023-03-07T11:04:59.775Z,39.23
2023-03-07T11:07:35.892Z,38.48
2023-03-07T11:10:27.666Z,39.44
2023-03-07T11:12:56.326Z,39.08
2023-03-07T11:15:24.699Z,39.59
2023-03-07T11:17:52.737Z,38.97
2023-03-07T11:20:30.941Z,37.86
2023-03-07T11:23:24.479Z,38.15
2023-03-07T11:25:53.736Z,37.85
2023-03-07T11:28:35.635Z,38.33
2023-03-07T11:31:32.064Z,37.36
2023-03-07T11:34:27.928Z,37.44
2023-03-07T11:37:33.896Z,38.37
2023-03-07T11:40:09.448Z,38.05
2023-03-07T11:42:58.955Z,37.67
2023-03-07T11:45:43.235Z,37.60
2023-03-07T11:48:22.048Z,36.99
2023-03-07T11:50:57.528Z,35.21
2023-03-07T11:53:51.771Z,35.38
2023-03-07T11:56:26.319Z,34.73
2023-03-07T11:59:53.948Z,35.04
2023-03-07T12:02:38.644Z,36.22
2023-03-07T12:05:37.451Z,36.46
2023-03-07T12:08:32.071Z,35.11
2023-03-07T12:11:19.705Z,35.82
2023-03-07T12:14:25.058Z,34.51
2023-03-07T12:17:08.952Z,34.41
2023-03-07T12:19:57.313Z,34.66
2023-03-07T12:22:52.816Z,34.96
2023-03-07T12:25:39.625Z,35.52
2023-03-07T12:28:44.579Z,32.57
2023-03-07T12:31:16.334Z,32.96
2023-03-07T12:34:09.685Z,31.95
2023-03-07T12:36:52.607Z,30.98
2023-03-07T12:39:33.146Z,29.70
2023-03-07T12:42:06.522Z,30.02
2023-03-07T12:44:43.335Z,30.69
2023-03-07T12:47:25.285Z,30.57
2023-03-07T12:50:35.331Z,30.77
2023-03-07T12:53:30.812Z,29.68
2023-03-07T12:56:22.397Z,30.22
2023-03-07T12:59:07.426Z,30.08
2023-03-07T13:02:01.901Z,27.69
2023-03-07T13:04:40.684Z,27.41
2023-03-07T13:07:33.426Z,25.62
2023-03-07T13:10:05.043Z,25.81
2023-03-07T13:12:35.310Z,23.90
2023-03-07T13:15:25.497Z,23.52
2023-03-07T13:17:52.390Z,22.29
2023-03-07T13:20:28.293Z,22.57
2023-03-07T13:22:57.906Z,22.12
2023-03-07T13:25:48.949Z,19.96
2023-03-07T13:28:48.758Z,19.98
2023-03-07T13:31:15.598Z,20.76
2023-03-07T13:33:43.659Z,20.28
2023-03-07T13:36:38.723Z,20.04
2023-03-07T13:39:37.958Z,22.33
2023-03-07T13:42:05.112Z,21.98
2023-03-07T13:44:40.963Z,21.26
2023-03-07T13:47:56.221Z,20.19
2023-03-07T13:50:52.283Z,20.17
2023-03-07T13:53:34.107Z,19.90
2023-03-07T13:56:28.510Z,19.54
2023-03-07T13:59:16.576Z,20.92
2023-03-07T14:01:47.472Z,20.00
2023-03-07T14:04:39.453Z,19.68
2023-03-07T14:07:22.968Z,19.05
2023-03-07T14:09:54.975Z,19.24
2023-03-07T14:13:01.114Z,19.26
2023-03-07T14:16:08.411Z,19.96
2023-03-07T14:19:04.293Z,19.15
2023-03-07T14:21:55.933Z,20.01
2023-03-07T14:24:51.881Z,20.65
2023-03-07T14:27:18.915Z,20.48
2023-03-07T14:29:57.023Z,20.70
2023-03-07T14:32:31.506Z,18.89
2023-03-07T14:34:59.645Z,19.05
2023-03-07T14:37:31.130Z,19.73
2023-03-07T14:40:09.870Z,18.37
2023-03-07T14:43:04.806Z,18.80
2023-03-07T14:45:52.966Z,19.42
2023-03-07T14:48:54.658Z,19.54
2023-03-07T14:51:26.451Z,19.70
2023-03-07T14:53:53.553Z,20.09
2023-03-07T14:56:32.165Z,20.37
2023-03-07T14:59:02.669Z,20.85
2023-03-07T15:01:38.819Z,20.88
2023-03-07T15:04:27.853Z,21.20
2023-03-07T15:06:59.090Z,21.58
2023-03-07T15:09:27.392Z,21.32
2023-03-07T15:12:20.634Z,21.92
2023-03-07T15:14:55.083Z,22.34
2023-03-07T15:17:43.604Z,22.54
2023-03-07T15:20:22.061Z,22.46
2023-03-07T15:22:49.371Z,22.13
2023-03-07T15:25:25.362Z,22.27
2023-03-07T15:28:17.617Z,21.99
2023-03-07T15:30:52.145Z,21.50
2023-03-07T15:33:20.065Z,22.25
2023-03-07T15:36:11.574Z,22.26
2023-03-07T15:38:48.065Z,22.40
2023-03-07T15:41:36.365Z,22.97
2023-03-07T15:44:12.556Z,23.11
2023-03-07T15:46:46.977Z,23.31
2023-03-07T15:49:26.198Z,23.37
2023-03-07T15:51:59.561Z,24.06
2023-03-07T15:54:32.052Z,24.26
2023-03-07T15:57:04.791Z,24.58
2023-03-07T15:59:57.737Z,24.96
2023-03-07T16:02:44.575Z,25.57
2023-03-07T16:05:23.528Z,26.13
2023-03-07T16:07:53.414Z,26.15
2023-03-07T16:10:21.623Z,26.58
2023-03-07T16:12:49.865Z,26.91
2023-03-07T16:15:21.242Z,27.02
2023-03-07T16:17:56.273Z,27.27
2023-03-07T16:20:28.361Z,27.36
2023-03-07T16:22:56.193Z,27.88
2023-03-07T16:25:26.831Z,27.98
2023-03-07T16:27:57.569Z,28.32
2023-03-07T16:30:30.676Z,28.36
2023-03-07T16:32:57.798Z,29.11
2023-03-07T16:35:27.822Z,28.91
2023-03-07T16:37:55.986Z,29.15
2023-03-07T16:40:23.732Z,29.18
2023-03-07T16:42:51.103Z,29.42
2023-03-07T16:45:31.376Z,29.04
2023-03-07T16:48:05.001Z,30.40
2023-03-07T16:50:33.438Z,30.32
2023-03-07T16:53:00.703Z,31.32
2023-03-07T16:55:28.103Z,30.74
2023-03-07T16:58:00.916Z,30.72
2023-03-07T17:00:28.925Z,31.70
2023-03-07T17:03:00.276Z,31.72
2023-03-07T17:05:29.900Z,31.65
2023-03-07T17:07:58.596Z,31.54
2023-03-07T17:10:27.000Z,32.64
2023-03-07T17:12:59.017Z,32.28
2023-03-07T17:15:30.491Z,32.78
2023-03-07T17:17:59.400Z,32.86
2023-03-07T17:20:27.117Z,34.01
2023-03-07T17:22:54.266Z,33.40
2023-03-07T17:25:22.822Z,33.16
2023-03-07T17:27:55.800Z,32.87
2023-03-07T17:30:27.410Z,33.00
2023-03-07T17:32:54.618Z,33.01
2023-03-07T17:35:22.064Z,33.31
2023-03-07T17:37:52.857Z,33.45
2023-03-07T17:40:21.142Z,33.32
2023-03-07T17:42:51.307Z,33.21
2023-03-07T17:45:18.911Z,33.69
2023-03-07T17:47:50.238Z,34.08
2023-03-07T17:50:19.382Z,34.58
2023-03-07T17:52:46.402Z,34.51
2023-03-07T17:55:15.513Z,34.76
2023-03-07T17:57:43.392Z,35.09
2023-03-07T18:00:13.721Z,35.07
2023-03-07T18:02:44.093Z,35.73
2023-03-07T18:05:13.110Z,35.70
2023-03-07T18:07:41.415Z,36.26
2023-03-07T18:10:10.246Z,35.77
2023-03-07T18:12:39.031Z,36.74
2023-03-07T18:15:11.193Z,36.27
2023-03-07T18:17:47.341Z,36.04
2023-03-07T18:20:19.032Z,37.61
2023-03-07T18:22:46.591Z,37.83
2023-03-07T18:25:15.845Z,38.64
2023-03-07T18:27:43.727Z,38.34
2023-03-07T18:30:11.948Z,38.13
2023-03-07T18:32:39.028Z,38.73
2023-03-07T18:35:06.875Z,38.65
2023-03-07T18:37:34.012Z,38.59
2023-03-07T18:40:01.045Z,38.24
2023-03-07T18:42:28.021Z,38.05
2023-03-07T18:44:55.009Z,39.06
2023-03-07T18:47:21.975Z,38.56
2023-03-07T18:49:51.212Z,38.12
2023-03-07T18:52:18.815Z,38.82
2023-03-07T18:54:45.727Z,38.83
2023-03-07T18:57:12.729Z,39.36
2023-03-07T18:59:39.854Z,39.15
2023-03-07T19:02:08.971Z,38.86
2023-03-07T19:04:35.903Z,39.23
2023-03-07T19:07:03.974Z,39.20
2023-03-07T19:09:31.625Z,39.55
2023-03-07T19:11:59.050Z,39.33
2023-03-07T19:14:26.457Z,39.76
2023-03-07T19:16:53.566Z,39.82
2023-03-07T19:19:20.823Z,40.38
2023-03-07T19:21:47.863Z,41.43
2023-03-07T19:24:14.918Z,41.54
2023-03-07T19:26:43.236Z,40.85
2023-03-07T19:29:12.145Z,40.45
2023-03-07T19:31:40.879Z,40.63
2023-03-07T19:34:08.981Z,40.77
2023-03-07T19:36:37.308Z,40.60
2023-03-07T19:39:05.098Z,41.21
2023-03-07T19:41:32.758Z,41.18
2023-03-07T19:44:01.307Z,42.54
2023-03-07T19:46:28.510Z,42.73
2023-03-07T19:48:56.692Z,42.67
2023-03-07T19:51:26.373Z,43.68
2023-03-07T19:53:57.155Z,42.85
2023-03-07T19:56:30.699Z,42.17
2023-03-07T19:59:00.930Z,44.28
2023-03-07T20:01:29.300Z,42.71
2023-03-07T20:03:56.991Z,42.46
2023-03-07T20:06:29.956Z,42.75
2023-03-07T20:08:58.624Z,43.13
2023-03-07T20:11:32.225Z,42.93
2023-03-07T20:14:03.580Z,43.07
2023-03-07T20:16:32.217Z,43.17
2023-03-07T20:19:02.948Z,43.07
2023-03-07T20:21:30.548Z,44.31
2023-03-07T20:24:00.750Z,44.16
2023-03-07T20:26:36.613Z,43.71
2023-03-07T20:29:06.142Z,45.67
2023-03-07T20:31:33.786Z,45.19
2023-03-07T20:34:01.289Z,45.98
2023-03-07T20:36:31.426Z,45.13
2023-03-07T20:39:01.720Z,45.83
2023-03-07T20:41:31.850Z,44.78
2023-03-07T20:44:03.941Z,44.20
2023-03-07T20:46:32.194Z,44.26
2023-03-07T20:49:00.934Z,45.21
2023-03-07T20:51:31.836Z,44.97
2023-03-07T20:54:16.021Z,46.24
2023-03-07T20:56:45.292Z,45.96
2023-03-07T20:59:18.244Z,46.11
2023-03-07T21:01:45.772Z,46.59
2023-03-07T21:04:15.801Z,46.45
2023-03-07T21:06:45.552Z,47.15
2023-03-07T21:09:16.056Z,46.02
2023-03-07T21:11:46.318Z,46.15
2023-03-07T21:14:15.697Z,47.49
2023-03-07T21:16:43.745Z,46.18
2023-03-07T21:19:11.626Z,46.80
2023-03-07T21:21:39.424Z,46.80
2023-03-07T21:24:07.329Z,47.29
2023-03-07T21:26:36.468Z,47.19
2023-03-07T21:29:04.789Z,46.38
2023-03-07T21:31:34.868Z,46.10
2023-03-07T21:34:06.326Z,46.89
2023-03-07T21:36:33.982Z,46.82
2023-03-07T21:39:04.146Z,46.44
2023-03-07T21:41:31.337Z,46.43
2023-03-07T21:43:58.465Z,47.13
2023-03-07T21:46:26.439Z,46.78
2023-03-07T21:48:53.952Z,46.70
2023-03-07T21:51:21.434Z,46.03
2023-03-07T21:53:48.638Z,46.71
2023-03-07T21:56:17.285Z,45.94
2023-03-07T21:58:48.879Z,46.44
2023-03-07T22:01:23.065Z,46.48
2023-03-07T22:03:55.554Z,46.63
2023-03-07T22:06:23.864Z,46.48
2023-03-07T22:08:50.894Z,47.05
2023-03-07T22:11:17.913Z,46.69
2023-03-07T22:13:44.848Z,47.13
2023-03-07T22:16:16.270Z,47.05
2023-03-07T22:18:43.458Z,47.42
2023-03-07T22:21:18.181Z,47.60
2023-03-07T22:23:45.820Z,47.62
2023-03-07T22:26:13.037Z,47.03
2023-03-07T22:28:41.229Z,47.46
2023-03-07T22:31:11.599Z,47.22
2023-03-07T22:33:39.411Z,46.88
2023-03-07T22:36:08.789Z,46.64
2023-03-07T22:38:35.825Z,46.39
2023-03-07T22:41:23.202Z,46.97
2023-03-07T22:43:50.247Z,46.10
2023-03-07T22:46:17.221Z,46.34
2023-03-07T22:48:44.144Z,46.87
2023-03-07T22:51:18.004Z,46.73
2023-03-07T22:53:45.817Z,46.90
2023-03-07T22:56:27.440Z,46.79
2023-03-07T22:58:54.598Z,46.40
2023-03-07T23:01:25.440Z,46.50
2023-03-07T23:03:54.478Z,46.07
2023-03-07T23:06:23.031Z,46.27
2023-03-07T23:08:53.094Z,45.98
2023-03-07T23:11:22.413Z,45.52
2023-03-07T23:13:49.837Z,46.26
2023-03-07T23:16:20.489Z,45.78
2023-03-07T23:18:50.662Z,45.90
2023-03-07T23:21:20.924Z,45.70
2023-03-07T23:23:51.697Z,45.51
2023-03-07T23:26:26.557Z,45.60
2023-03-07T23:28:54.354Z,45.77
2023-03-07T23:31:32.070Z,45.71
2023-03-07T23:34:02.362Z,45.63
2023-03-07T23:36:31.333Z,45.26
2023-03-07T23:39:00.002Z,45.43
2023-03-07T23:41:27.790Z,45.26
2023-03-07T23:43:59.888Z,44.99
2023-03-07T23:46:27.974Z,45.08
2023-03-07T23:48:55.152Z,44.89
2023-03-07T23:51:22.821Z,45.10
2023-03-07T23:53:50.208Z,45.04
2023-03-07T23:56:17.314Z,44.89
2023-03-07T23:58:47.305Z,44.91
